Terminal Aerodrome Forecast
Issued by NWS Cleveland, OH

Home | Current Version | Previous Version | Graphics & Text | Print | Product List | Glossary On
Versions: 1 2 3 4 5 6 7 8 9 10 11 12 13 14 15 16 17 18 19 20 21 22 23 24 25 26 27 28 29
851
FTUS41 KCLE 230644 AAA
TAFMFD
TAF AMD
KMFD 230644Z 2307/2406 00000KT 4SM BR OVC003
     FM230900 13008KT P6SM VCSH OVC003
     FM231100 14008KT 1 1/2SM -RA BR OVC003
     FM231500 18012KT 3SM RA BR OVC007
     FM231900 23013KT P6SM OVC007
     FM240100 26008KT P6SM OVC007=

USA.gov is the U.S. government's official web portal to all federal, state and local government web resources and services.